EZY7MP EDDL-EGPH
Flight info
| Callsign | EZY7MP |
|---|---|
| Flight time | 1h 23m |
| Altitude | 38000 |
| Route | SONEB6Z SONEB P64 TENLI L602 SPY DCT GODOS DCT AGPED |
| Aircraft | A320/M-SDE3FGHIRWY/LB1 |
Departure
| Time | 2026-05-05 18:46 |
|---|---|
| Airport | Düsseldorf Airport (EDDL) |
Arrival
| Time | 2026-05-05 20:09 |
|---|---|
| Airport | Edinburgh Airport (EGPH) |
| Time | Latitude | Longitude | Altitude | Speed | Heading |
|---|---|---|---|---|---|
| 2026-05-05 18:16 | 51.27624 | 6.75630 | 130 ft | 0 kts | 63° |
| 2026-05-05 18:35 | 51.27618 | 6.75614 | 141 ft | 4 kts | 58° |
| 2026-05-05 18:35 | 51.27602 | 6.75581 | 120 ft | 4 kts | 37° |
| 2026-05-05 18:35 | 51.27579 | 6.75562 | 124 ft | 4 kts | 6° |
| 2026-05-05 18:36 | 51.27558 | 6.75565 | 126 ft | 0 kts | 334° |
| 2026-05-05 18:40 | 51.27585 | 6.75544 | 124 ft | 8 kts | 334° |
| 2026-05-05 18:41 | 51.27636 | 6.75515 | 127 ft | 7 kts | 337° |
| 2026-05-05 18:41 | 51.27672 | 6.75486 | 126 ft | 8 kts | 333° |
| 2026-05-05 18:41 | 51.27752 | 6.75422 | 124 ft | 12 kts | 333° |
| 2026-05-05 18:41 | 51.27802 | 6.75381 | 122 ft | 7 kts | 333° |
| 2026-05-05 18:42 | 51.27835 | 6.75355 | 125 ft | 4 kts | 334° |
| 2026-05-05 18:42 | 51.27862 | 6.75333 | 125 ft | 4 kts | 334° |
| 2026-05-05 18:42 | 51.27889 | 6.75311 | 125 ft | 4 kts | 333° |
| 2026-05-05 18:42 | 51.27894 | 6.75307 | 125 ft | 0 kts | 333° |
| 2026-05-05 18:43 | 51.27900 | 6.75303 | 124 ft | 5 kts | 333° |
| 2026-05-05 18:43 | 51.27940 | 6.75271 | 124 ft | 4 kts | 337° |
| 2026-05-05 18:43 | 51.27972 | 6.75262 | 124 ft | 5 kts | 359° |
| 2026-05-05 18:43 | 51.28001 | 6.75280 | 125 ft | 3 kts | 38° |
| 2026-05-05 18:44 | 51.28008 | 6.75296 | 121 ft | 4 kts | 56° |
| 2026-05-05 18:44 | 51.28014 | 6.75308 | 121 ft | 0 kts | 54° |
| 2026-05-05 18:45 | 51.28051 | 6.75385 | 124 ft | 33 kts | 53° |
| 2026-05-05 18:45 | 51.28337 | 6.75986 | 129 ft | 100 kts | 52° |
| 2026-05-05 18:45 | 51.28874 | 6.77114 | 130 ft | 152 kts | 53° |
| 2026-05-05 18:45 | 51.29529 | 6.78511 | 598 ft | 160 kts | 50° |
| 2026-05-05 18:46 | 51.30203 | 6.79946 | 1342 ft | 160 kts | 51° |
| 2026-05-05 18:46 | 51.30916 | 6.81451 | 1842 ft | 177 kts | 51° |
| 2026-05-05 18:46 | 51.31718 | 6.83098 | 2177 ft | 202 kts | 53° |
| 2026-05-05 18:46 | 51.32609 | 6.84956 | 2597 ft | 224 kts | 53° |
| 2026-05-05 18:47 | 51.33589 | 6.87036 | 3120 ft | 245 kts | 54° |
| 2026-05-05 18:47 | 51.34643 | 6.89303 | 3758 ft | 259 kts | 53° |
| 2026-05-05 18:47 | 51.36070 | 6.91032 | 4655 ft | 265 kts | 20° |
| 2026-05-05 18:47 | 51.37895 | 6.91632 | 5513 ft | 270 kts | 8° |
| 2026-05-05 18:48 | 51.39781 | 6.92016 | 6359 ft | 275 kts | 7° |
| 2026-05-05 18:48 | 51.41704 | 6.92384 | 7100 ft | 281 kts | 7° |
| 2026-05-05 18:48 | 51.43653 | 6.92783 | 7978 ft | 283 kts | 8° |
| 2026-05-05 18:48 | 51.45616 | 6.93252 | 8826 ft | 287 kts | 8° |
| 2026-05-05 18:49 | 51.47608 | 6.93765 | 9653 ft | 292 kts | 9° |
| 2026-05-05 18:49 | 51.49633 | 6.94147 | 10370 ft | 296 kts | 359° |
| 2026-05-05 18:49 | 51.51734 | 6.93824 | 10768 ft | 314 kts | 350° |
| 2026-05-05 18:49 | 51.53967 | 6.93216 | 11057 ft | 334 kts | 349° |
| 2026-05-05 18:50 | 51.56290 | 6.92559 | 11672 ft | 342 kts | 349° |
| 2026-05-05 18:50 | 51.58650 | 6.91887 | 12358 ft | 348 kts | 349° |
| 2026-05-05 18:50 | 51.61057 | 6.91199 | 13077 ft | 353 kts | 349° |
| 2026-05-05 18:50 | 51.63486 | 6.90510 | 13777 ft | 357 kts | 349° |
| 2026-05-05 18:51 | 51.65950 | 6.89814 | 14400 ft | 361 kts | 349° |
| 2026-05-05 18:51 | 51.68437 | 6.89115 | 15038 ft | 365 kts | 349° |
| 2026-05-05 18:51 | 51.70952 | 6.88406 | 15685 ft | 368 kts | 349° |
| 2026-05-05 18:51 | 51.73472 | 6.87584 | 16324 ft | 371 kts | 347° |
| 2026-05-05 18:52 | 51.76002 | 6.86645 | 16968 ft | 374 kts | 346° |
| 2026-05-05 18:52 | 51.78510 | 6.85652 | 17575 ft | 378 kts | 345° |
| 2026-05-05 18:52 | 51.81105 | 6.84605 | 18207 ft | 381 kts | 345° |
| 2026-05-05 18:52 | 51.83651 | 6.83588 | 18742 ft | 384 kts | 345° |
| 2026-05-05 18:53 | 51.86263 | 6.82561 | 19259 ft | 388 kts | 346° |
| 2026-05-05 18:53 | 51.88882 | 6.81451 | 19798 ft | 390 kts | 339° |
| 2026-05-05 18:53 | 51.91276 | 6.79391 | 20319 ft | 391 kts | 321° |
| 2026-05-05 18:53 | 51.93170 | 6.76241 | 20845 ft | 392 kts | 304° |
| 2026-05-05 18:54 | 51.94726 | 6.72594 | 21379 ft | 394 kts | 302° |
| 2026-05-05 18:54 | 51.96273 | 6.68906 | 21907 ft | 398 kts | 302° |
| 2026-05-05 18:54 | 51.97831 | 6.65169 | 22438 ft | 401 kts | 301° |
| 2026-05-05 18:54 | 51.99401 | 6.61400 | 22960 ft | 405 kts | 301° |
| 2026-05-05 18:55 | 52.00987 | 6.57602 | 23467 ft | 408 kts | 301° |
| 2026-05-05 18:55 | 52.02586 | 6.53773 | 23900 ft | 411 kts | 301° |
| 2026-05-05 18:55 | 52.04192 | 6.49930 | 24331 ft | 413 kts | 301° |
| 2026-05-05 18:55 | 52.05809 | 6.46058 | 24750 ft | 415 kts | 301° |
| 2026-05-05 18:56 | 52.07434 | 6.42154 | 25165 ft | 418 kts | 301° |
| 2026-05-05 18:56 | 52.09064 | 6.38234 | 25576 ft | 420 kts | 301° |
| 2026-05-05 18:56 | 52.10703 | 6.34282 | 25968 ft | 422 kts | 301° |
| 2026-05-05 18:56 | 52.12346 | 6.30312 | 26348 ft | 425 kts | 301° |
| 2026-05-05 18:57 | 52.13998 | 6.26314 | 26732 ft | 427 kts | 301° |
| 2026-05-05 18:57 | 52.15658 | 6.22294 | 27106 ft | 429 kts | 301° |
| 2026-05-05 18:57 | 52.17328 | 6.18246 | 27481 ft | 431 kts | 301° |
| 2026-05-05 18:57 | 52.19007 | 6.14179 | 27848 ft | 433 kts | 301° |
| 2026-05-05 18:58 | 52.20697 | 6.10083 | 28214 ft | 435 kts | 301° |
| 2026-05-05 18:58 | 52.22385 | 6.05972 | 28561 ft | 437 kts | 300° |
| 2026-05-05 18:58 | 52.24074 | 6.01843 | 28919 ft | 439 kts | 300° |
| 2026-05-05 18:58 | 52.25776 | 5.97683 | 29257 ft | 441 kts | 300° |
| 2026-05-05 18:59 | 52.27485 | 5.93504 | 29582 ft | 444 kts | 300° |
| 2026-05-05 18:59 | 52.29199 | 5.89306 | 29915 ft | 446 kts | 300° |
| 2026-05-05 18:59 | 52.30920 | 5.85084 | 30184 ft | 447 kts | 300° |
| 2026-05-05 18:59 | 52.32645 | 5.80844 | 30459 ft | 449 kts | 300° |
| 2026-05-05 19:00 | 52.34378 | 5.76574 | 30715 ft | 451 kts | 300° |
| 2026-05-05 19:00 | 52.36115 | 5.72283 | 30962 ft | 453 kts | 300° |
| 2026-05-05 19:00 | 52.37854 | 5.67982 | 31202 ft | 454 kts | 300° |
| 2026-05-05 19:00 | 52.39599 | 5.63658 | 31490 ft | 454 kts | 300° |
| 2026-05-05 19:01 | 52.41230 | 5.59620 | 31813 ft | 454 kts | 300° |
| 2026-05-05 19:01 | 52.43037 | 5.55138 | 32163 ft | 453 kts | 299° |
| 2026-05-05 19:01 | 52.44769 | 5.50837 | 32487 ft | 452 kts | 299° |
| 2026-05-05 19:01 | 52.46499 | 5.46531 | 32818 ft | 452 kts | 299° |
| 2026-05-05 19:02 | 52.48201 | 5.42281 | 33127 ft | 451 kts | 299° |
| 2026-05-05 19:02 | 52.49922 | 5.37975 | 33457 ft | 451 kts | 298° |
| 2026-05-05 19:02 | 52.51663 | 5.33613 | 33783 ft | 450 kts | 298° |
| 2026-05-05 19:02 | 52.53375 | 5.29316 | 34080 ft | 450 kts | 298° |
| 2026-05-05 19:03 | 52.55084 | 5.25019 | 34372 ft | 449 kts | 299° |
| 2026-05-05 19:03 | 52.56784 | 5.20734 | 34670 ft | 447 kts | 299° |
| 2026-05-05 19:03 | 52.58407 | 5.16635 | 34955 ft | 446 kts | 299° |
| 2026-05-05 19:03 | 52.60070 | 5.12432 | 35230 ft | 444 kts | 299° |
| 2026-05-05 19:04 | 52.61755 | 5.08168 | 35503 ft | 443 kts | 299° |
| 2026-05-05 19:04 | 52.63428 | 5.03930 | 35764 ft | 442 kts | 299° |
| 2026-05-05 19:04 | 52.65104 | 4.99681 | 36015 ft | 441 kts | 299° |
| 2026-05-05 19:04 | 52.66773 | 4.95441 | 36249 ft | 441 kts | 299° |
| 2026-05-05 19:05 | 52.68437 | 4.91203 | 36476 ft | 440 kts | 299° |
| 2026-05-05 19:05 | 52.70093 | 4.86970 | 36683 ft | 440 kts | 299° |
| 2026-05-05 19:05 | 52.71747 | 4.82730 | 36888 ft | 439 kts | 299° |
| 2026-05-05 19:05 | 52.73404 | 4.78483 | 37086 ft | 439 kts | 299° |
| 2026-05-05 19:06 | 52.75053 | 4.74257 | 37270 ft | 439 kts | 299° |
| 2026-05-05 19:06 | 52.76709 | 4.70012 | 37450 ft | 439 kts | 299° |
| 2026-05-05 19:06 | 52.78361 | 4.65770 | 37630 ft | 439 kts | 299° |
| 2026-05-05 19:06 | 52.80010 | 4.61525 | 37809 ft | 439 kts | 299° |
| 2026-05-05 19:07 | 52.81653 | 4.57292 | 37934 ft | 439 kts | 299° |
| 2026-05-05 19:07 | 52.83301 | 4.53031 | 37948 ft | 439 kts | 299° |
| 2026-05-05 19:07 | 52.86585 | 4.44527 | 37946 ft | 438 kts | 299° |
| 2026-05-05 19:08 | 52.89856 | 4.36018 | 37947 ft | 438 kts | 299° |
| 2026-05-05 19:08 | 52.93115 | 4.27489 | 37951 ft | 438 kts | 299° |
| 2026-05-05 19:09 | 52.96369 | 4.18960 | 37954 ft | 438 kts | 298° |
| 2026-05-05 19:09 | 52.99551 | 4.10613 | 37963 ft | 438 kts | 298° |
| 2026-05-05 19:10 | 53.02802 | 4.02058 | 37971 ft | 438 kts | 298° |
| 2026-05-05 19:10 | 53.06044 | 3.93496 | 37973 ft | 437 kts | 298° |
| 2026-05-05 19:11 | 53.09274 | 3.84924 | 37979 ft | 437 kts | 298° |
| 2026-05-05 19:11 | 53.12494 | 3.76344 | 37979 ft | 437 kts | 298° |
| 2026-05-05 19:12 | 53.15701 | 3.67750 | 37984 ft | 437 kts | 298° |
| 2026-05-05 19:12 | 53.18905 | 3.59154 | 37989 ft | 436 kts | 298° |
| 2026-05-05 19:13 | 53.22106 | 3.50553 | 37989 ft | 436 kts | 298° |
| 2026-05-05 19:13 | 53.25299 | 3.41943 | 37989 ft | 436 kts | 298° |
| 2026-05-05 19:14 | 53.28559 | 3.33407 | 37992 ft | 436 kts | 300° |
| 2026-05-05 19:14 | 53.31865 | 3.24927 | 37992 ft | 435 kts | 300° |
| 2026-05-05 19:15 | 53.35152 | 3.16425 | 37991 ft | 435 kts | 299° |
| 2026-05-05 19:15 | 53.38386 | 3.07962 | 37996 ft | 434 kts | 299° |
| 2026-05-05 19:16 | 53.41633 | 2.99443 | 37993 ft | 434 kts | 299° |
| 2026-05-05 19:16 | 53.44871 | 2.90921 | 37997 ft | 433 kts | 299° |
| 2026-05-05 19:17 | 53.48090 | 2.82387 | 37994 ft | 433 kts | 299° |
| 2026-05-05 19:17 | 53.51314 | 2.73853 | 37993 ft | 432 kts | 300° |
| 2026-05-05 19:18 | 53.54530 | 2.65315 | 37994 ft | 432 kts | 299° |
| 2026-05-05 19:18 | 53.57732 | 2.56774 | 37997 ft | 432 kts | 299° |
| 2026-05-05 19:19 | 53.60933 | 2.48209 | 37997 ft | 432 kts | 299° |
| 2026-05-05 19:19 | 53.64126 | 2.39637 | 37992 ft | 432 kts | 299° |
| 2026-05-05 19:20 | 53.67312 | 2.31057 | 37986 ft | 432 kts | 299° |
| 2026-05-05 19:20 | 53.69952 | 2.23918 | 37999 ft | 432 kts | 299° |
| 2026-05-05 19:21 | 53.73122 | 2.15311 | 37995 ft | 431 kts | 299° |
| 2026-05-05 19:21 | 53.76282 | 2.06700 | 37997 ft | 431 kts | 299° |
| 2026-05-05 19:22 | 53.79444 | 1.98076 | 37995 ft | 431 kts | 299° |
| 2026-05-05 19:22 | 53.82596 | 1.89437 | 38006 ft | 431 kts | 299° |
| 2026-05-05 19:23 | 53.85736 | 1.80794 | 38009 ft | 431 kts | 299° |
| 2026-05-05 19:23 | 53.88863 | 1.72173 | 38008 ft | 431 kts | 299° |
| 2026-05-05 19:24 | 53.92000 | 1.63507 | 38005 ft | 431 kts | 298° |
| 2026-05-05 19:24 | 53.95124 | 1.54825 | 38010 ft | 431 kts | 298° |
| 2026-05-05 19:25 | 53.98233 | 1.46128 | 38007 ft | 431 kts | 298° |
| 2026-05-05 19:25 | 54.01345 | 1.37420 | 38014 ft | 431 kts | 298° |
| 2026-05-05 19:26 | 54.04451 | 1.28703 | 38024 ft | 431 kts | 298° |
| 2026-05-05 19:26 | 54.07526 | 1.20030 | 38021 ft | 431 kts | 298° |
| 2026-05-05 19:27 | 54.10623 | 1.11282 | 38016 ft | 431 kts | 298° |
| 2026-05-05 19:27 | 54.13706 | 1.02535 | 38025 ft | 430 kts | 298° |
| 2026-05-05 19:28 | 54.16737 | 0.93905 | 38024 ft | 430 kts | 298° |
| 2026-05-05 19:28 | 54.19806 | 0.85150 | 38030 ft | 430 kts | 298° |
| 2026-05-05 19:29 | 54.22860 | 0.76390 | 38030 ft | 429 kts | 298° |
| 2026-05-05 19:29 | 54.25877 | 0.67695 | 38038 ft | 429 kts | 298° |
| 2026-05-05 19:30 | 54.28917 | 0.58920 | 38040 ft | 428 kts | 298° |
| 2026-05-05 19:30 | 54.31941 | 0.50151 | 38040 ft | 428 kts | 298° |
| 2026-05-05 19:31 | 54.34958 | 0.41361 | 38048 ft | 427 kts | 298° |
| 2026-05-05 19:31 | 54.37962 | 0.32579 | 38047 ft | 427 kts | 298° |
| 2026-05-05 19:32 | 54.40957 | 0.23778 | 38052 ft | 427 kts | 298° |
| 2026-05-05 19:32 | 54.43929 | 0.15039 | 38053 ft | 426 kts | 298° |
| 2026-05-05 19:33 | 54.46915 | 0.06242 | 38053 ft | 426 kts | 298° |
| 2026-05-05 19:33 | 54.49891 | -0.02566 | 38056 ft | 426 kts | 297° |
| 2026-05-05 19:34 | 54.52860 | -0.11380 | 38063 ft | 426 kts | 297° |
| 2026-05-05 19:35 | 54.57294 | -0.24622 | 38062 ft | 425 kts | 297° |
| 2026-05-05 19:35 | 54.60236 | -0.33466 | 38069 ft | 425 kts | 297° |
| 2026-05-05 19:36 | 54.63170 | -0.42313 | 38066 ft | 425 kts | 297° |
| 2026-05-05 19:36 | 54.66029 | -0.50941 | 38075 ft | 425 kts | 297° |
| 2026-05-05 19:37 | 54.69004 | -0.59956 | 38076 ft | 424 kts | 297° |
| 2026-05-05 19:37 | 54.71924 | -0.68842 | 37733 ft | 427 kts | 297° |
| 2026-05-05 19:37 | 54.73383 | -0.73293 | 37281 ft | 425 kts | 297° |
| 2026-05-05 19:38 | 54.74833 | -0.77735 | 36750 ft | 423 kts | 297° |
| 2026-05-05 19:38 | 54.76277 | -0.82167 | 36236 ft | 421 kts | 297° |
| 2026-05-05 19:38 | 54.77711 | -0.86563 | 35737 ft | 418 kts | 296° |
| 2026-05-05 19:38 | 54.79136 | -0.90929 | 35241 ft | 414 kts | 296° |
| 2026-05-05 19:39 | 54.80543 | -0.95255 | 34761 ft | 410 kts | 296° |
| 2026-05-05 19:39 | 54.81934 | -0.99546 | 34283 ft | 406 kts | 296° |
| 2026-05-05 19:39 | 54.83308 | -1.03795 | 33769 ft | 403 kts | 296° |
| 2026-05-05 19:39 | 54.84671 | -1.08018 | 33225 ft | 399 kts | 295° |
| 2026-05-05 19:40 | 54.86020 | -1.12213 | 32680 ft | 396 kts | 295° |
| 2026-05-05 19:40 | 54.87359 | -1.16375 | 32163 ft | 393 kts | 295° |
| 2026-05-05 19:40 | 54.88686 | -1.20508 | 31644 ft | 391 kts | 295° |
| 2026-05-05 19:40 | 54.90006 | -1.24622 | 31147 ft | 388 kts | 295° |
| 2026-05-05 19:41 | 54.91315 | -1.28702 | 30647 ft | 386 kts | 295° |
| 2026-05-05 19:41 | 54.92617 | -1.32767 | 30159 ft | 383 kts | 295° |
| 2026-05-05 19:41 | 54.93908 | -1.36803 | 29590 ft | 381 kts | 296° |
| 2026-05-05 19:41 | 54.95189 | -1.40822 | 29112 ft | 377 kts | 296° |
| 2026-05-05 19:42 | 54.96455 | -1.44806 | 28558 ft | 375 kts | 296° |
| 2026-05-05 19:42 | 54.97706 | -1.48758 | 28186 ft | 369 kts | 296° |
| 2026-05-05 19:42 | 54.98933 | -1.52644 | 27912 ft | 363 kts | 296° |
| 2026-05-05 19:42 | 55.00145 | -1.56479 | 27654 ft | 360 kts | 296° |
| 2026-05-05 19:43 | 55.01351 | -1.60300 | 27398 ft | 359 kts | 296° |
| 2026-05-05 19:43 | 55.02546 | -1.64098 | 27127 ft | 357 kts | 296° |
| 2026-05-05 19:43 | 55.03735 | -1.67885 | 26868 ft | 356 kts | 296° |
| 2026-05-05 19:43 | 55.04904 | -1.71608 | 26616 ft | 354 kts | 296° |
| 2026-05-05 19:44 | 55.06087 | -1.75372 | 26352 ft | 353 kts | 296° |
| 2026-05-05 19:44 | 55.07263 | -1.79115 | 25974 ft | 351 kts | 297° |
| 2026-05-05 19:44 | 55.08433 | -1.82843 | 25595 ft | 349 kts | 297° |
| 2026-05-05 19:44 | 55.09591 | -1.86549 | 25231 ft | 347 kts | 297° |
| 2026-05-05 19:45 | 55.10741 | -1.90235 | 24866 ft | 345 kts | 297° |
| 2026-05-05 19:45 | 55.11882 | -1.93903 | 24511 ft | 343 kts | 297° |
| 2026-05-05 19:45 | 55.13029 | -1.97546 | 24152 ft | 341 kts | 298° |
| 2026-05-05 19:45 | 55.14201 | -2.01135 | 23797 ft | 339 kts | 298° |
| 2026-05-05 19:46 | 55.15386 | -2.04692 | 23403 ft | 337 kts | 298° |
| 2026-05-05 19:46 | 55.16567 | -2.08221 | 22980 ft | 335 kts | 298° |
| 2026-05-05 19:46 | 55.17738 | -2.11732 | 22572 ft | 333 kts | 298° |
| 2026-05-05 19:46 | 55.18894 | -2.15219 | 22163 ft | 330 kts | 298° |
| 2026-05-05 19:47 | 55.20039 | -2.18695 | 21766 ft | 328 kts | 298° |
| 2026-05-05 19:47 | 55.21168 | -2.22151 | 21363 ft | 326 kts | 298° |
| 2026-05-05 19:47 | 55.22285 | -2.25579 | 20977 ft | 323 kts | 298° |
| 2026-05-05 19:47 | 55.23399 | -2.28994 | 20590 ft | 321 kts | 298° |
| 2026-05-05 19:48 | 55.24506 | -2.32382 | 20210 ft | 319 kts | 298° |
| 2026-05-05 19:48 | 55.25603 | -2.35744 | 19840 ft | 317 kts | 298° |
| 2026-05-05 19:48 | 55.26692 | -2.39091 | 19475 ft | 315 kts | 298° |
| 2026-05-05 19:48 | 55.27776 | -2.42424 | 19103 ft | 313 kts | 298° |
| 2026-05-05 19:49 | 55.28851 | -2.45732 | 18744 ft | 311 kts | 298° |
| 2026-05-05 19:49 | 55.29558 | -2.47911 | 18507 ft | 310 kts | 298° |
| 2026-05-05 19:49 | 55.30976 | -2.52297 | 17977 ft | 308 kts | 298° |
| 2026-05-05 19:49 | 55.32026 | -2.55556 | 17567 ft | 306 kts | 298° |
| 2026-05-05 19:50 | 55.33070 | -2.58798 | 17168 ft | 304 kts | 298° |
| 2026-05-05 19:50 | 55.34108 | -2.62028 | 16775 ft | 303 kts | 298° |
| 2026-05-05 19:50 | 55.35142 | -2.65247 | 16379 ft | 302 kts | 298° |
| 2026-05-05 19:50 | 55.36171 | -2.68453 | 15992 ft | 301 kts | 298° |
| 2026-05-05 19:51 | 55.37199 | -2.71659 | 15614 ft | 300 kts | 298° |
| 2026-05-05 19:51 | 55.38221 | -2.74844 | 15239 ft | 299 kts | 298° |
| 2026-05-05 19:51 | 55.39241 | -2.78025 | 14869 ft | 298 kts | 298° |
| 2026-05-05 19:51 | 55.40256 | -2.81198 | 14502 ft | 297 kts | 298° |
| 2026-05-05 19:52 | 55.41266 | -2.84368 | 14136 ft | 296 kts | 298° |
| 2026-05-05 19:52 | 55.42269 | -2.87522 | 13761 ft | 295 kts | 298° |
| 2026-05-05 19:52 | 55.43268 | -2.90665 | 13358 ft | 294 kts | 298° |
| 2026-05-05 19:52 | 55.44250 | -2.93753 | 12958 ft | 292 kts | 298° |
| 2026-05-05 19:53 | 55.45354 | -2.96744 | 12562 ft | 291 kts | 309° |
| 2026-05-05 19:53 | 55.46824 | -2.99202 | 12081 ft | 294 kts | 322° |
| 2026-05-05 19:53 | 55.48619 | -3.00973 | 11569 ft | 299 kts | 336° |
| 2026-05-05 19:53 | 55.50605 | -3.02117 | 11067 ft | 301 kts | 341° |
| 2026-05-05 19:54 | 55.52608 | -3.03216 | 10573 ft | 303 kts | 341° |
| 2026-05-05 19:54 | 55.54621 | -3.04324 | 10077 ft | 303 kts | 341° |
| 2026-05-05 19:54 | 55.56633 | -3.05437 | 9540 ft | 303 kts | 341° |
| 2026-05-05 19:54 | 55.58646 | -3.06552 | 9008 ft | 303 kts | 341° |
| 2026-05-05 19:55 | 55.60658 | -3.07671 | 8471 ft | 303 kts | 341° |
| 2026-05-05 19:55 | 55.62662 | -3.08788 | 7953 ft | 301 kts | 341° |
| 2026-05-05 19:55 | 55.64630 | -3.09883 | 7439 ft | 300 kts | 341° |
| 2026-05-05 19:55 | 55.66422 | -3.10889 | 6977 ft | 299 kts | 341° |
| 2026-05-05 19:56 | 55.68386 | -3.11991 | 6721 ft | 289 kts | 340° |
| 2026-05-05 19:56 | 55.70067 | -3.13697 | 6594 ft | 274 kts | 313° |
| 2026-05-05 19:56 | 55.70886 | -3.16550 | 6464 ft | 253 kts | 279° |
| 2026-05-05 19:56 | 55.70723 | -3.19521 | 6203 ft | 246 kts | 255° |
| 2026-05-05 19:57 | 55.70184 | -3.22422 | 5788 ft | 245 kts | 254° |
| 2026-05-05 19:57 | 55.69832 | -3.24334 | 5517 ft | 246 kts | 255° |
| 2026-05-05 19:57 | 55.69132 | -3.28190 | 5002 ft | 250 kts | 254° |
| 2026-05-05 19:57 | 55.68601 | -3.31128 | 4594 ft | 251 kts | 253° |
| 2026-05-05 19:58 | 55.68062 | -3.34111 | 4355 ft | 250 kts | 253° |
| 2026-05-05 19:58 | 55.67525 | -3.37064 | 4211 ft | 253 kts | 253° |
| 2026-05-05 19:58 | 55.67090 | -3.40078 | 4090 ft | 252 kts | 267° |
| 2026-05-05 19:58 | 55.67311 | -3.43100 | 4022 ft | 246 kts | 294° |
| 2026-05-05 19:59 | 55.68180 | -3.45634 | 4025 ft | 244 kts | 311° |
| 2026-05-05 19:59 | 55.69190 | -3.47958 | 3963 ft | 232 kts | 310° |
| 2026-05-05 19:59 | 55.70156 | -3.50187 | 3760 ft | 225 kts | 311° |
| 2026-05-05 19:59 | 55.71106 | -3.52378 | 3498 ft | 222 kts | 311° |
| 2026-05-05 20:00 | 55.72027 | -3.54512 | 3363 ft | 214 kts | 311° |
| 2026-05-05 20:00 | 55.72924 | -3.56597 | 3226 ft | 206 kts | 311° |
| 2026-05-05 20:00 | 55.73762 | -3.58549 | 3121 ft | 196 kts | 311° |
| 2026-05-05 20:00 | 55.74553 | -3.60396 | 3023 ft | 180 kts | 311° |
| 2026-05-05 20:01 | 55.75276 | -3.62090 | 3025 ft | 174 kts | 311° |
| 2026-05-05 20:01 | 55.76039 | -3.63855 | 3025 ft | 183 kts | 311° |
| 2026-05-05 20:01 | 55.76816 | -3.65656 | 3025 ft | 184 kts | 311° |
| 2026-05-05 20:01 | 55.77594 | -3.67461 | 3025 ft | 184 kts | 311° |
| 2026-05-05 20:02 | 55.78376 | -3.69269 | 3033 ft | 184 kts | 313° |
| 2026-05-05 20:02 | 55.79317 | -3.70739 | 3027 ft | 179 kts | 334° |
| 2026-05-05 20:02 | 55.80456 | -3.71546 | 3026 ft | 174 kts | 354° |
| 2026-05-05 20:02 | 55.81641 | -3.71645 | 3032 ft | 169 kts | 12° |
| 2026-05-05 20:03 | 55.82750 | -3.71085 | 3032 ft | 164 kts | 30° |
| 2026-05-05 20:03 | 55.83682 | -3.69961 | 3031 ft | 160 kts | 47° |
| 2026-05-05 20:03 | 55.84357 | -3.68409 | 3037 ft | 159 kts | 60° |
| 2026-05-05 20:03 | 55.84937 | -3.66721 | 3034 ft | 160 kts | 60° |
| 2026-05-05 20:04 | 55.85514 | -3.65042 | 3032 ft | 159 kts | 60° |
| 2026-05-05 20:04 | 55.86091 | -3.63361 | 3031 ft | 159 kts | 60° |
| 2026-05-05 20:04 | 55.86669 | -3.61674 | 3035 ft | 160 kts | 60° |
| 2026-05-05 20:04 | 55.87249 | -3.59981 | 2944 ft | 160 kts | 60° |
| 2026-05-05 20:05 | 55.87827 | -3.58293 | 2767 ft | 160 kts | 61° |
| 2026-05-05 20:05 | 55.88405 | -3.56605 | 2567 ft | 159 kts | 61° |
| 2026-05-05 20:05 | 55.88982 | -3.54922 | 2341 ft | 159 kts | 61° |
| 2026-05-05 20:05 | 55.89563 | -3.53233 | 2106 ft | 160 kts | 62° |
| 2026-05-05 20:06 | 55.90126 | -3.51565 | 1911 ft | 156 kts | 62° |
| 2026-05-05 20:06 | 55.90685 | -3.49921 | 1685 ft | 152 kts | 60° |
| 2026-05-05 20:06 | 55.91211 | -3.48398 | 1473 ft | 137 kts | 61° |
| 2026-05-05 20:06 | 55.91698 | -3.46988 | 1207 ft | 131 kts | 62° |
| 2026-05-05 20:07 | 55.92165 | -3.45573 | 1033 ft | 134 kts | 62° |
| 2026-05-05 20:07 | 55.92657 | -3.44157 | 840 ft | 135 kts | 62° |
| 2026-05-05 20:07 | 55.93144 | -3.42725 | 643 ft | 138 kts | 61° |
| 2026-05-05 20:07 | 55.93648 | -3.41240 | 472 ft | 139 kts | 62° |
| 2026-05-05 20:08 | 55.94135 | -3.39807 | 282 ft | 137 kts | 62° |
| 2026-05-05 20:08 | 55.94468 | -3.38826 | 161 ft | 138 kts | 62° |
| 2026-05-05 20:08 | 55.95036 | -3.37147 | 111 ft | 90 kts | 58° |
| 2026-05-05 20:08 | 55.95289 | -3.36400 | 111 ft | 58 kts | 59° |
| 2026-05-05 20:09 | 55.95414 | -3.36030 | 109 ft | 45 kts | 59° |
| 2026-05-05 20:09 | 55.95563 | -3.35581 | 113 ft | 13 kts | 72° |
| 2026-05-05 20:09 | 55.95548 | -3.35498 | 112 ft | 11 kts | 139° |
| 2026-05-05 20:09 | 55.95486 | -3.35428 | 111 ft | 9 kts | 149° |
| 2026-05-05 20:10 | 55.95462 | -3.35402 | 113 ft | 0 kts | 148° |
| 2026-05-05 20:11 | 55.95451 | -3.35398 | 113 ft | 7 kts | 176° |
| 2026-05-05 20:11 | 55.95392 | -3.35525 | 113 ft | 16 kts | 239° |
| 2026-05-05 20:11 | 55.95336 | -3.35688 | 111 ft | 15 kts | 238° |
| 2026-05-05 20:12 | 55.95288 | -3.35832 | 112 ft | 8 kts | 239° |
| 2026-05-05 20:12 | 55.95262 | -3.35909 | 111 ft | 7 kts | 239° |
| 2026-05-05 20:12 | 55.95222 | -3.35987 | 112 ft | 11 kts | 200° |
| 2026-05-05 20:12 | 55.95156 | -3.35937 | 110 ft | 12 kts | 148° |
| 2026-05-05 20:13 | 55.95105 | -3.35820 | 111 ft | 11 kts | 121° |
| 2026-05-05 20:13 | 55.95048 | -3.35803 | 112 ft | 9 kts | 207° |
| 2026-05-05 20:13 | 55.94996 | -3.35852 | 112 ft | 8 kts | 207° |
| 2026-05-05 20:13 | 55.94937 | -3.35847 | 110 ft | 10 kts | 149° |
| 2026-05-05 20:14 | 55.94894 | -3.35730 | 112 ft | 12 kts | 118° |
| 2026-05-05 20:14 | 55.94861 | -3.35705 | 112 ft | 4 kts | 200° |
| 2026-05-05 20:14 | 55.94836 | -3.35729 | 111 ft | 4 kts | 208° |
| 2026-05-05 20:14 | 55.94821 | -3.35744 | 112 ft | 1 kts | 208° |
| 2026-05-05 20:15 | 55.94816 | -3.35748 | 112 ft | 0 kts | 208° |
| 2026-05-05 20:15 | 55.94815 | -3.35749 | 112 ft | 0 kts | 208° |